Cotes De Bretagne — FW3973 — position and weather

sailwx.info

Track history (hours):
 
Tides and Currents Weather Stations Pressure Air Temp Water Temp Dewpoint Dewpoint Depression Visibility Wind Speed Wind Dir Waves Ship Positions

Cotes De Bretagne

Last reported at 2015-Jul-02 22:33 UTC. Time now 2015-Jul-02 23:11 UTC.
Position N 48°13' W 004°29'.

Length 75 m; draft 4.2 m.

Type: Dredging. MMSI: 227003850.

Date/timePositionNaut miles runAvg speedWind from/ knotsBaromVisibWave heightAir tempDewpointWater temp
2015-Jul-02 22:33N 48°13' W 004°29'0 0.0
2015-Jul-02 21:33N 48°13' W 004°29'0 0.0
2015-Jul-02 20:33N 48°13' W 004°29'0 0.0
2015-Jul-02 19:30N 48°13' W 004°29'0 0.0
2015-Jul-02 18:33N 48°13' W 004°28'0 0.0
2015-Jul-02 17:33N 48°13' W 004°28'0 0.4
2015-Jul-02 16:33N 48°13' W 004°29'0 0.5
2015-Jul-02 15:33N 48°14' W 004°30'0 0.0
2015-Jul-02 14:33N 48°14' W 004°30'0 0.0
2015-Jul-02 13:33N 48°14' W 004°30'0 0.3
2015-Jul-02 12:34N 48°14' W 004°29'7 6.9
2015-Jul-02 11:33N 48°08' W 004°34'10 9.7
2015-Jul-02 10:33N 48°02' W 004°46'1211.2
2015-Jul-02 09:28N 47°53' W 004°33'1010.4
2015-Jul-02 08:33N 47°46' W 004°23'21 7.1
2015-Jul-02 05:33N 47°45' W 003°52'13 0.3
2015-Jun-30 12:33N 47°53' W 004°07'3 1.0
2015-Jun-30 09:33N 47°50' W 004°06'8 7.2
2015-Jun-30 08:27N 47°46' W 003°55'7 7.7
2015-Jun-30 07:33N 47°42' W 003°47'8 7.7
2015-Jun-30 06:33N 47°37' W 003°38'8 7.7
2015-Jun-30 05:33N 47°33' W 003°29'8 7.7
2015-Jun-30 04:33N 47°28' W 003°20'8 7.8
2015-Jun-30 03:33N 47°24' W 003°11'7 7.5
2015-Jun-30 02:33N 47°19' W 003°02'8 7.8
2015-Jun-30 01:33N 47°13' W 002°55'8 7.7
2015-Jun-30 00:31N 47°06' W 002°48'8 7.7
2015-Jun-29 23:32N 46°60' W 002°43'11 7.7
2015-Jun-29 22:07N 46°50' W 002°34'7 7.6
2015-Jun-29 21:12N 46°44' W 002°30'6 7.2
2015-Jun-29 20:24N 46°40' W 002°24'9 7.5
2015-Jun-29 19:11N 46°35' W 002°13'5 7.2
2015-Jun-29 18:33N 46°32' W 002°07'7 7.2
2015-Jun-29 17:33N 46°28' W 001°59'7 7.1
2015-Jun-29 16:33N 46°25' W 001°50'4 4.2
2015-Jun-29 15:33N 46°22' W 001°45'0 0.3
2015-Jun-29 14:33N 46°22' W 001°45'0 0.1
2015-Jun-29 13:33N 46°22' W 001°45'9 9.2
2015-Jun-29 12:33N 46°29' W 001°54'9 9.2
2015-Jun-29 11:33N 46°36' W 002°04'9 9.0
2015-Jun-29 10:33N 46°42' W 002°12'10 9.0
2015-Jun-29 09:30N 46°50' W 002°21'8 8.7
2015-Jun-29 08:32N 46°56' W 002°29'8 8.6
2015-Jun-29 07:33N 47°02' W 002°38'9 8.7
2015-Jun-29 06:33N 47°08' W 002°47'9 9.3
2015-Jun-29 05:33N 47°15' W 002°56'9 9.5
2015-Jun-29 04:33N 47°22' W 003°05'9 9.2
2015-Jun-29 03:34N 47°30' W 003°13'9 9.1
2015-Jun-29 02:33N 47°37' W 003°21'8 7.7
2015-Jun-29 01:34N 47°45' W 003°19'0 0.1
2015-Jun-29 00:33N 47°45' W 003°19'0 0.0
2015-Jun-28 23:33N 47°45' W 003°19'1 0.6
2015-Jun-28 22:33N 47°44' W 003°20'1 0.9
2015-Jun-28 21:34N 47°44' W 003°21'0 0.0
2015-Jun-28 20:34N 47°44' W 003°21'0 0.0
2015-Jun-28 19:34N 47°44' W 003°21'0 0.0
2015-Jun-28 18:33N 47°44' W 003°21'0 0.0
2015-Jun-28 17:33N 47°44' W 003°21'0 0.0
2015-Jun-28 16:33N 47°44' W 003°21'4 4.5
2015-Jun-28 15:33N 47°40' W 003°25'6 6.2
2015-Jun-28 14:33N 47°35' W 003°19'6 6.2
2015-Jun-28 13:33N 47°30' W 003°14'6 6.1
2015-Jun-28 12:33N 47°25' W 003°08'6 6.0
2015-Jun-28 11:33N 47°21' W 003°02'7 6.7
2015-Jun-28 10:33N 47°16' W 002°56'7 6.6
2015-Jun-28 09:26N 47°10' W 002°49'6 6.6
2015-Jun-28 08:33N 47°06' W 002°43'7 6.8
2015-Jun-28 07:33N 47°01' W 002°37'7 7.1
2015-Jun-28 06:34N 46°55' W 002°30'7 7.0
2015-Jun-28 05:34N 46°51' W 002°23'7 6.9
2015-Jun-28 04:34N 46°46' W 002°15'7 7.1
2015-Jun-28 03:34N 46°40' W 002°10'7 7.2
2015-Jun-28 02:33N 46°35' W 002°02'7 7.0
2015-Jun-28 01:34N 46°30' W 001°55'7 6.6
2015-Jun-28 00:33N 46°25' W 001°49'4 4.0
2015-Jun-27 23:33N 46°22' W 001°44'0 0.0
2015-Jun-27 22:34N 46°22' W 001°44'0 0.0
2015-Jun-27 21:33N 46°22' W 001°44'6 6.5
2015-Jun-27 20:33N 46°26' W 001°52'1010.3
2015-Jun-27 19:33N 46°34' W 002°02'1010.0
2015-Jun-27 18:34N 46°42' W 002°11'10 9.8
2015-Jun-27 17:33N 46°49' W 002°20'10 9.9
2015-Jun-27 16:34N 46°56' W 002°30'1010.4
2015-Jun-27 15:33N 47°06' W 002°23'13 1.9
2015-Jun-27 08:24N 47°17' W 002°12'0 0.0
2015-Jun-27 07:30N 47°17' W 002°12'0 0.0
2015-Jun-27 06:33N 47°17' W 002°12'0 0.0
2015-Jun-27 05:33N 47°17' W 002°12'0 0.0
2015-Jun-27 04:33N 47°17' W 002°12'0 0.0
2015-Jun-27 03:12N 47°17' W 002°12'0 0.0
2015-Jun-27 02:33N 47°17' W 002°12'0 0.0
2015-Jun-27 01:31N 47°17' W 002°12'0 0.0
2015-Jun-27 00:29N 47°17' W 002°12'0 0.0
2015-Jun-26 23:21N 47°17' W 002°12'0 0.0
2015-Jun-26 22:31N 47°17' W 002°12'0 0.0
2015-Jun-26 21:28N 47°17' W 002°12'0 0.0
2015-Jun-26 20:33N 47°17' W 002°12'0 0.0
2015-Jun-26 19:33N 47°17' W 002°12'0 0.0
2015-Jun-26 18:33N 47°17' W 002°12'0 0.0
2015-Jun-26 17:33N 47°17' W 002°12'0 0.0
2015-Jun-26 16:33N 47°17' W 002°12'0 0.0
2015-Jun-26 15:33N 47°17' W 002°12'0 0.0
2015-Jun-26 14:33N 47°17' W 002°12'0 0.0
2015-Jun-26 06:33N 47°17' W 002°12'0 0.0
2015-Jun-26 05:33N 47°17' W 002°12'0 0.0
2015-Jun-26 04:33N 47°17' W 002°12'0 0.0
2015-Jun-26 03:33N 47°17' W 002°12'0 0.0
2015-Jun-26 02:33N 47°17' W 002°12'0 0.0
2015-Jun-26 01:33N 47°17' W 002°12'0 0.0
2015-Jun-26 00:33N 47°17' W 002°12'0 0.0
2015-Jun-25 23:33N 47°17' W 002°12'0 0.0
2015-Jun-25 22:33N 47°17' W 002°12'0 0.0
2015-Jun-25 21:33N 47°17' W 002°12'0 0.0
2015-Jun-25 20:33N 47°17' W 002°12'0 0.0
2015-Jun-25 19:33N 47°17' W 002°12'0 0.0
2015-Jun-25 18:29N 47°17' W 002°12'0 0.0
2015-Jun-25 17:31N 47°17' W 002°12'0 0.0
2015-Jun-25 16:33N 47°17' W 002°12'0 0.0
2015-Jun-25 15:21N 47°17' W 002°12'0 0.0
2015-Jun-25 14:22N 47°17' W 002°12'0 0.0
2015-Jun-25 13:32N 47°17' W 002°12'0 0.0
2015-Jun-25 12:33N 47°17' W 002°12'0 0.0
2015-Jun-25 11:32N 47°17' W 002°12'0 0.0
2015-Jun-25 10:32N 47°17' W 002°12'0 0.0
2015-Jun-25 09:33N 47°17' W 002°12'0 0.0
2015-Jun-25 08:30N 47°17' W 002°12'0 0.0
2015-Jun-25 07:32N 47°17' W 002°12'0 0.0
2015-Jun-25 06:32N 47°17' W 002°12'0 0.0
2015-Jun-25 05:33N 47°17' W 002°12'0 0.0
2015-Jun-25 04:33N 47°17' W 002°12'0 0.0
2015-Jun-25 03:33N 47°17' W 002°12'0 0.0
2015-Jun-25 02:33N 47°17' W 002°12'0 0.0
2015-Jun-25 01:32N 47°17' W 002°12'0 0.0
2015-Jun-25 00:33N 47°17' W 002°12'0 0.0
2015-Jun-24 23:33N 47°17' W 002°12'0 0.0
2015-Jun-24 22:33N 47°17' W 002°12'0 0.0
2015-Jun-24 21:33N 47°17' W 002°12'0 0.0
2015-Jun-24 20:32N 47°17' W 002°12'0 0.0
2015-Jun-24 19:32N 47°17' W 002°12'0 0.0
2015-Jun-24 08:20N 47°17' W 002°12'0 0.0
2015-Jun-24 07:31N 47°17' W 002°12'0 0.0
2015-Jun-24 06:33N 47°17' W 002°12'0 0.0
2015-Jun-24 05:33N 47°17' W 002°12'0 0.0
2015-Jun-24 04:33N 47°17' W 002°12'0 0.0
2015-Jun-24 03:33N 47°17' W 002°12'0 0.0
2015-Jun-24 02:33N 47°17' W 002°12'0 0.0
2015-Jun-24 01:33N 47°17' W 002°12'0 0.0
2015-Jun-24 00:32N 47°17' W 002°12'0 0.0
2015-Jun-23 23:31N 47°17' W 002°12'0 0.0
2015-Jun-23 20:16N 47°17' W 002°12'  
Track history (hours):
 
Tides and Currents Weather Stations Pressure Air Temp Water Temp Dewpoint Dewpoint Depression Visibility Wind Speed Wind Dir Waves Ship Positions

Cotes De Bretagne

Last reported at 2015-Jul-02 22:33 UTC. Time now 2015-Jul-02 23:11 UTC.
Position N 48°13' W 004°29'.

Length 75 m; draft 4.2 m.

Type: Dredging. MMSI: 227003850.

Date/timePositionNaut miles runAvg speedWind from/ knotsBaromVisibWave heightAir tempDewpointWater temp
2015-Jul-02 22:33N 48°13' W 004°29'0 0.0
2015-Jul-02 21:33N 48°13' W 004°29'0 0.0
2015-Jul-02 20:33N 48°13' W 004°29'0 0.0
2015-Jul-02 19:30N 48°13' W 004°29'0 0.0
2015-Jul-02 18:33N 48°13' W 004°28'0 0.0
2015-Jul-02 17:33N 48°13' W 004°28'0 0.4
2015-Jul-02 16:33N 48°13' W 004°29'0 0.5
2015-Jul-02 15:33N 48°14' W 004°30'0 0.0
2015-Jul-02 14:33N 48°14' W 004°30'0 0.0
2015-Jul-02 13:33N 48°14' W 004°30'0 0.3
2015-Jul-02 12:34N 48°14' W 004°29'7 6.9
2015-Jul-02 11:33N 48°08' W 004°34'10 9.7
2015-Jul-02 10:33N 48°02' W 004°46'1211.2
2015-Jul-02 09:28N 47°53' W 004°33'1010.4
2015-Jul-02 08:33N 47°46' W 004°23'21 7.1
2015-Jul-02 05:33N 47°45' W 003°52'13 0.3
2015-Jun-30 12:33N 47°53' W 004°07'3 1.0
2015-Jun-30 09:33N 47°50' W 004°06'8 7.2
2015-Jun-30 08:27N 47°46' W 003°55'7 7.7
2015-Jun-30 07:33N 47°42' W 003°47'8 7.7
2015-Jun-30 06:33N 47°37' W 003°38'8 7.7
2015-Jun-30 05:33N 47°33' W 003°29'8 7.7
2015-Jun-30 04:33N 47°28' W 003°20'8 7.8
2015-Jun-30 03:33N 47°24' W 003°11'7 7.5
2015-Jun-30 02:33N 47°19' W 003°02'8 7.8
2015-Jun-30 01:33N 47°13' W 002°55'8 7.7
2015-Jun-30 00:31N 47°06' W 002°48'8 7.7
2015-Jun-29 23:32N 46°60' W 002°43'11 7.7
2015-Jun-29 22:07N 46°50' W 002°34'7 7.6
2015-Jun-29 21:12N 46°44' W 002°30'6 7.2
2015-Jun-29 20:24N 46°40' W 002°24'9 7.5
2015-Jun-29 19:11N 46°35' W 002°13'5 7.2
2015-Jun-29 18:33N 46°32' W 002°07'7 7.2
2015-Jun-29 17:33N 46°28' W 001°59'7 7.1
2015-Jun-29 16:33N 46°25' W 001°50'4 4.2
2015-Jun-29 15:33N 46°22' W 001°45'0 0.3
2015-Jun-29 14:33N 46°22' W 001°45'0 0.1
2015-Jun-29 13:33N 46°22' W 001°45'9 9.2
2015-Jun-29 12:33N 46°29' W 001°54'9 9.2
2015-Jun-29 11:33N 46°36' W 002°04'9 9.0
2015-Jun-29 10:33N 46°42' W 002°12'10 9.0
2015-Jun-29 09:30N 46°50' W 002°21'8 8.7
2015-Jun-29 08:32N 46°56' W 002°29'8 8.6
2015-Jun-29 07:33N 47°02' W 002°38'9 8.7
2015-Jun-29 06:33N 47°08' W 002°47'9 9.3
2015-Jun-29 05:33N 47°15' W 002°56'9 9.5
2015-Jun-29 04:33N 47°22' W 003°05'9 9.2
2015-Jun-29 03:34N 47°30' W 003°13'9 9.1
2015-Jun-29 02:33N 47°37' W 003°21'8 7.7
2015-Jun-29 01:34N 47°45' W 003°19'0 0.1
2015-Jun-29 00:33N 47°45' W 003°19'0 0.0
2015-Jun-28 23:33N 47°45' W 003°19'1 0.6
2015-Jun-28 22:33N 47°44' W 003°20'1 0.9
2015-Jun-28 21:34N 47°44' W 003°21'0 0.0
2015-Jun-28 20:34N 47°44' W 003°21'0 0.0
2015-Jun-28 19:34N 47°44' W 003°21'0 0.0
2015-Jun-28 18:33N 47°44' W 003°21'0 0.0
2015-Jun-28 17:33N 47°44' W 003°21'0 0.0
2015-Jun-28 16:33N 47°44' W 003°21'4 4.5
2015-Jun-28 15:33N 47°40' W 003°25'6 6.2
2015-Jun-28 14:33N 47°35' W 003°19'6 6.2
2015-Jun-28 13:33N 47°30' W 003°14'6 6.1
2015-Jun-28 12:33N 47°25' W 003°08'6 6.0
2015-Jun-28 11:33N 47°21' W 003°02'7 6.7
2015-Jun-28 10:33N 47°16' W 002°56'7 6.6
2015-Jun-28 09:26N 47°10' W 002°49'6 6.6
2015-Jun-28 08:33N 47°06' W 002°43'7 6.8
2015-Jun-28 07:33N 47°01' W 002°37'7 7.1
2015-Jun-28 06:34N 46°55' W 002°30'7 7.0
2015-Jun-28 05:34N 46°51' W 002°23'7 6.9
2015-Jun-28 04:34N 46°46' W 002°15'7 7.1
2015-Jun-28 03:34N 46°40' W 002°10'7 7.2
2015-Jun-28 02:33N 46°35' W 002°02'7 7.0
2015-Jun-28 01:34N 46°30' W 001°55'7 6.6
2015-Jun-28 00:33N 46°25' W 001°49'4 4.0
2015-Jun-27 23:33N 46°22' W 001°44'0 0.0
2015-Jun-27 22:34N 46°22' W 001°44'0 0.0
2015-Jun-27 21:33N 46°22' W 001°44'6 6.5
2015-Jun-27 20:33N 46°26' W 001°52'1010.3
2015-Jun-27 19:33N 46°34' W 002°02'1010.0
2015-Jun-27 18:34N 46°42' W 002°11'10 9.8
2015-Jun-27 17:33N 46°49' W 002°20'10 9.9
2015-Jun-27 16:34N 46°56' W 002°30'1010.4
2015-Jun-27 15:33N 47°06' W 002°23'13 1.9
2015-Jun-27 08:24N 47°17' W 002°12'0 0.0
2015-Jun-27 07:30N 47°17' W 002°12'0 0.0
2015-Jun-27 06:33N 47°17' W 002°12'0 0.0
2015-Jun-27 05:33N 47°17' W 002°12'0 0.0
2015-Jun-27 04:33N 47°17' W 002°12'0 0.0
2015-Jun-27 03:12N 47°17' W 002°12'0 0.0
2015-Jun-27 02:33N 47°17' W 002°12'0 0.0
2015-Jun-27 01:31N 47°17' W 002°12'0 0.0
2015-Jun-27 00:29N 47°17' W 002°12'0 0.0
2015-Jun-26 23:21N 47°17' W 002°12'0 0.0
2015-Jun-26 22:31N 47°17' W 002°12'0 0.0
2015-Jun-26 21:28N 47°17' W 002°12'0 0.0
2015-Jun-26 20:33N 47°17' W 002°12'0 0.0
2015-Jun-26 19:33N 47°17' W 002°12'0 0.0
2015-Jun-26 18:33N 47°17' W 002°12'0 0.0
2015-Jun-26 17:33N 47°17' W 002°12'0 0.0
2015-Jun-26 16:33N 47°17' W 002°12'0 0.0
2015-Jun-26 15:33N 47°17' W 002°12'0 0.0
2015-Jun-26 14:33N 47°17' W 002°12'0 0.0
2015-Jun-26 06:33N 47°17' W 002°12'0 0.0
2015-Jun-26 05:33N 47°17' W 002°12'0 0.0
2015-Jun-26 04:33N 47°17' W 002°12'0 0.0
2015-Jun-26 03:33N 47°17' W 002°12'0 0.0
2015-Jun-26 02:33N 47°17' W 002°12'0 0.0
2015-Jun-26 01:33N 47°17' W 002°12'0 0.0
2015-Jun-26 00:33N 47°17' W 002°12'0 0.0
2015-Jun-25 23:33N 47°17' W 002°12'0 0.0
2015-Jun-25 22:33N 47°17' W 002°12'0 0.0
2015-Jun-25 21:33N 47°17' W 002°12'0 0.0
2015-Jun-25 20:33N 47°17' W 002°12'0 0.0
2015-Jun-25 19:33N 47°17' W 002°12'0 0.0
2015-Jun-25 18:29N 47°17' W 002°12'0 0.0
2015-Jun-25 17:31N 47°17' W 002°12'0 0.0
2015-Jun-25 16:33N 47°17' W 002°12'0 0.0
2015-Jun-25 15:21N 47°17' W 002°12'0 0.0
2015-Jun-25 14:22N 47°17' W 002°12'0 0.0
2015-Jun-25 13:32N 47°17' W 002°12'0 0.0
2015-Jun-25 12:33N 47°17' W 002°12'0 0.0
2015-Jun-25 11:32N 47°17' W 002°12'0 0.0
2015-Jun-25 10:32N 47°17' W 002°12'0 0.0
2015-Jun-25 09:33N 47°17' W 002°12'0 0.0
2015-Jun-25 08:30N 47°17' W 002°12'0 0.0
2015-Jun-25 07:32N 47°17' W 002°12'0 0.0
2015-Jun-25 06:32N 47°17' W 002°12'0 0.0
2015-Jun-25 05:33N 47°17' W 002°12'0 0.0
2015-Jun-25 04:33N 47°17' W 002°12'0 0.0
2015-Jun-25 03:33N 47°17' W 002°12'0 0.0
2015-Jun-25 02:33N 47°17' W 002°12'0 0.0
2015-Jun-25 01:32N 47°17' W 002°12'0 0.0
2015-Jun-25 00:33N 47°17' W 002°12'0 0.0
2015-Jun-24 23:33N 47°17' W 002°12'0 0.0
2015-Jun-24 22:33N 47°17' W 002°12'0 0.0
2015-Jun-24 21:33N 47°17' W 002°12'0 0.0
2015-Jun-24 20:32N 47°17' W 002°12'0 0.0
2015-Jun-24 19:32N 47°17' W 002°12'0 0.0
2015-Jun-24 08:20N 47°17' W 002°12'0 0.0
2015-Jun-24 07:31N 47°17' W 002°12'0 0.0
2015-Jun-24 06:33N 47°17' W 002°12'0 0.0
2015-Jun-24 05:33N 47°17' W 002°12'0 0.0
2015-Jun-24 04:33N 47°17' W 002°12'0 0.0
2015-Jun-24 03:33N 47°17' W 002°12'0 0.0
2015-Jun-24 02:33N 47°17' W 002°12'0 0.0
2015-Jun-24 01:33N 47°17' W 002°12'0 0.0
2015-Jun-24 00:32N 47°17' W 002°12'0 0.0
2015-Jun-23 23:31N 47°17' W 002°12'0 0.0
2015-Jun-23 20:16N 47°17' W 002°12'  

Dump ship's entire track history